sensor_id;sensor_type;location;lat;lon;timestamp;temperature;humidity
65858;SHT31;53776;47.242;18.674;2022-10-16T00:01:38;12.52;80.80
65858;SHT31;53776;47.242;18.674;2022-10-16T00:04:04;12.40;81.23
65858;SHT31;53776;47.242;18.674;2022-10-16T00:06:30;12.35;81.23
65858;SHT31;53776;47.242;18.674;2022-10-16T00:08:56;12.28;81.36
65858;SHT31;53776;47.242;18.674;2022-10-16T00:11:33;12.08;82.00
65858;SHT31;53776;47.242;18.674;2022-10-16T00:14:01;12.07;81.84
65858;SHT31;53776;47.242;18.674;2022-10-16T00:16:28;11.98;81.81
65858;SHT31;53776;47.242;18.674;2022-10-16T00:18:54;11.89;81.99
65858;SHT31;53776;47.242;18.674;2022-10-16T00:21:23;11.83;82.36
65858;SHT31;53776;47.242;18.674;2022-10-16T00:24:00;11.74;82.39
65858;SHT31;53776;47.242;18.674;2022-10-16T00:26:28;11.69;82.62
65858;SHT31;53776;47.242;18.674;2022-10-16T00:28:53;11.65;82.87
65858;SHT31;53776;47.242;18.674;2022-10-16T00:31:21;11.56;83.11
65858;SHT31;53776;47.242;18.674;2022-10-16T00:33:47;11.51;83.36
65858;SHT31;53776;47.242;18.674;2022-10-16T00:36:14;11.47;83.50
65858;SHT31;53776;47.242;18.674;2022-10-16T00:38:40;11.38;83.50
65858;SHT31;53776;47.242;18.674;2022-10-16T00:41:07;11.32;83.69
65858;SHT31;53776;47.242;18.674;2022-10-16T00:46:23;11.24;84.16
65858;SHT31;53776;47.242;18.674;2022-10-16T00:48:57;11.16;84.31
65858;SHT31;53776;47.242;18.674;2022-10-16T00:51:32;11.07;84.37
65858;SHT31;53776;47.242;18.674;2022-10-16T00:53:59;11.00;84.47
65858;SHT31;53776;47.242;18.674;2022-10-16T00:56:24;10.95;84.52
65858;SHT31;53776;47.242;18.674;2022-10-16T00:58:50;10.90;84.61
65858;SHT31;53776;47.242;18.674;2022-10-16T01:01:16;10.84;84.74
65858;SHT31;53776;47.242;18.674;2022-10-16T01:03:41;10.80;84.79
65858;SHT31;53776;47.242;18.674;2022-10-16T01:06:25;10.73;84.78
65858;SHT31;53776;47.242;18.674;2022-10-16T01:12:04;10.63;84.95
65858;SHT31;53776;47.242;18.674;2022-10-16T01:14:46;10.53;85.09
65858;SHT31;53776;47.242;18.674;2022-10-16T01:17:18;10.45;85.22
65858;SHT31;53776;47.242;18.674;2022-10-16T01:22:10;10.33;85.48
65858;SHT31;53776;47.242;18.674;2022-10-16T01:24:46;10.26;85.45
65858;SHT31;53776;47.242;18.674;2022-10-16T01:27:15;10.23;85.53
65858;SHT31;53776;47.242;18.674;2022-10-16T01:32:47;10.12;85.58
65858;SHT31;53776;47.242;18.674;2022-10-16T01:35:22;10.08;85.68
65858;SHT31;53776;47.242;18.674;2022-10-16T01:40:19;10.02;85.81
65858;SHT31;53776;47.242;18.674;2022-10-16T01:42:50;10.06;86.09
65858;SHT31;53776;47.242;18.674;2022-10-16T01:45:18;10.01;86.21
65858;SHT31;53776;47.242;18.674;2022-10-16T01:47:45;9.99;86.36
65858;SHT31;53776;47.242;18.674;2022-10-16T01:50:12;10.02;86.33
65858;SHT31;53776;47.242;18.674;2022-10-16T01:52:41;9.91;86.51
65858;SHT31;53776;47.242;18.674;2022-10-16T01:55:09;9.94;86.45
65858;SHT31;53776;47.242;18.674;2022-10-16T01:57:38;9.91;86.54
65858;SHT31;53776;47.242;18.674;2022-10-16T02:00:09;9.91;86.53
65858;SHT31;53776;47.242;18.674;2022-10-16T02:02:36;9.89;86.39
65858;SHT31;53776;47.242;18.674;2022-10-16T02:05:18;9.87;86.32
65858;SHT31;53776;47.242;18.674;2022-10-16T02:07:45;9.77;86.16
65858;SHT31;53776;47.242;18.674;2022-10-16T02:10:10;9.71;86.21
65858;SHT31;53776;47.242;18.674;2022-10-16T02:12:38;9.68;86.48
65858;SHT31;53776;47.242;18.674;2022-10-16T02:15:06;9.65;86.43
65858;SHT31;53776;47.242;18.674;2022-10-16T02:17:32;9.60;86.45
65858;SHT31;53776;47.242;18.674;2022-10-16T02:19:58;9.54;86.50
65858;SHT31;53776;47.242;18.674;2022-10-16T02:24:58;9.52;86.64
65858;SHT31;53776;47.242;18.674;2022-10-16T02:30:48;9.50;86.53
65858;SHT31;53776;47.242;18.674;2022-10-16T02:32:48;9.47;86.52
65858;SHT31;53776;47.242;18.674;2022-10-16T02:35:18;9.34;86.66
65858;SHT31;53776;47.242;18.674;2022-10-16T02:37:46;9.36;86.54
65858;SHT31;53776;47.242;18.674;2022-10-16T02:40:12;9.33;86.57
65858;SHT31;53776;47.242;18.674;2022-10-16T02:42:39;9.30;86.45
65858;SHT31;53776;47.242;18.674;2022-10-16T02:45:06;9.31;86.34
65858;SHT31;53776;47.242;18.674;2022-10-16T02:47:32;9.26;86.32
65858;SHT31;53776;47.242;18.674;2022-10-16T02:49:58;9.22;86.47
65858;SHT31;53776;47.242;18.674;2022-10-16T02:52:24;9.16;86.50
65858;SHT31;53776;47.242;18.674;2022-10-16T02:54:49;9.13;86.57
65858;SHT31;53776;47.242;18.674;2022-10-16T02:57:15;9.09;86.61
65858;SHT31;53776;47.242;18.674;2022-10-16T02:59:40;9.03;86.75
65858;SHT31;53776;47.242;18.674;2022-10-16T03:02:06;9.03;86.77
65858;SHT31;53776;47.242;18.674;2022-10-16T03:04:32;8.99;86.75
65858;SHT31;53776;47.242;18.674;2022-10-16T03:06:57;9.05;86.94
65858;SHT31;53776;47.242;18.674;2022-10-16T03:09:22;9.03;86.99
65858;SHT31;53776;47.242;18.674;2022-10-16T03:11:48;9.02;87.00
65858;SHT31;53776;47.242;18.674;2022-10-16T03:14:13;8.96;86.95
65858;SHT31;53776;47.242;18.674;2022-10-16T03:16:39;8.96;86.92
65858;SHT31;53776;47.242;18.674;2022-10-16T03:19:04;8.91;86.87
65858;SHT31;53776;47.242;18.674;2022-10-16T03:21:30;8.85;86.92
65858;SHT31;53776;47.242;18.674;2022-10-16T03:23:55;8.82;86.98
65858;SHT31;53776;47.242;18.674;2022-10-16T03:26:20;8.82;86.99
65858;SHT31;53776;47.242;18.674;2022-10-16T03:28:46;8.78;87.02
65858;SHT31;53776;47.242;18.674;2022-10-16T03:31:11;8.76;87.03
65858;SHT31;53776;47.242;18.674;2022-10-16T03:33:37;8.75;86.98
65858;SHT31;53776;47.242;18.674;2022-10-16T03:36:02;8.76;87.02
65858;SHT31;53776;47.242;18.674;2022-10-16T03:38:28;8.72;86.98
65858;SHT31;53776;47.242;18.674;2022-10-16T03:40:53;8.69;87.05
65858;SHT31;53776;47.242;18.674;2022-10-16T03:43:19;8.64;87.28
65858;SHT31;53776;47.242;18.674;2022-10-16T03:45:44;8.62;87.40
65858;SHT31;53776;47.242;18.674;2022-10-16T03:48:09;8.62;87.33
65858;SHT31;53776;47.242;18.674;2022-10-16T03:50:35;8.61;87.28
65858;SHT31;53776;47.242;18.674;2022-10-16T03:53:01;8.60;87.26
65858;SHT31;53776;47.242;18.674;2022-10-16T03:55:26;8.57;87.28
65858;SHT31;53776;47.242;18.674;2022-10-16T03:57:51;8.54;87.17
65858;SHT31;53776;47.242;18.674;2022-10-16T04:00:17;8.48;87.22
65858;SHT31;53776;47.242;18.674;2022-10-16T04:02:42;8.50;87.24
65858;SHT31;53776;47.242;18.674;2022-10-16T04:05:07;8.47;87.21
65858;SHT31;53776;47.242;18.674;2022-10-16T04:07:33;8.41;87.29
65858;SHT31;53776;47.242;18.674;2022-10-16T04:09:58;8.41;87.32
65858;SHT31;53776;47.242;18.674;2022-10-16T04:12:25;8.43;87.28
65858;SHT31;53776;47.242;18.674;2022-10-16T04:14:50;8.40;87.29
65858;SHT31;53776;47.242;18.674;2022-10-16T04:17:16;8.40;87.48
65858;SHT31;53776;47.242;18.674;2022-10-16T04:19:41;8.34;87.52
65858;SHT31;53776;47.242;18.674;2022-10-16T04:22:07;8.37;87.51
65858;SHT31;53776;47.242;18.674;2022-10-16T04:24:32;8.38;87.54
65858;SHT31;53776;47.242;18.674;2022-10-16T04:26:58;8.44;87.47
65858;SHT31;53776;47.242;18.674;2022-10-16T04:29:23;8.37;87.52
65858;SHT31;53776;47.242;18.674;2022-10-16T04:31:49;8.37;87.62
65858;SHT31;53776;47.242;18.674;2022-10-16T04:34:14;8.29;87.77
65858;SHT31;53776;47.242;18.674;2022-10-16T04:36:39;8.31;87.78
65858;SHT31;53776;47.242;18.674;2022-10-16T04:39:05;8.29;87.73
65858;SHT31;53776;47.242;18.674;2022-10-16T04:41:30;8.22;87.68
65858;SHT31;53776;47.242;18.674;2022-10-16T04:43:56;8.12;87.62
65858;SHT31;53776;47.242;18.674;2022-10-16T04:46:21;8.12;87.57
65858;SHT31;53776;47.242;18.674;2022-10-16T04:48:47;8.10;87.59
65858;SHT31;53776;47.242;18.674;2022-10-16T04:51:12;8.04;87.53
65858;SHT31;53776;47.242;18.674;2022-10-16T04:53:38;8.00;87.67
65858;SHT31;53776;47.242;18.674;2022-10-16T04:56:03;8.02;87.61
65858;SHT31;53776;47.242;18.674;2022-10-16T04:58:29;8.12;87.65
65858;SHT31;53776;47.242;18.674;2022-10-16T05:00:54;8.14;87.66
65858;SHT31;53776;47.242;18.674;2022-10-16T05:03:20;8.13;87.80
65858;SHT31;53776;47.242;18.674;2022-10-16T05:05:46;8.12;87.73
65858;SHT31;53776;47.242;18.674;2022-10-16T05:08:13;8.14;87.78
65858;SHT31;53776;47.242;18.674;2022-10-16T05:10:39;8.14;87.82
65858;SHT31;53776;47.242;18.674;2022-10-16T05:13:04;8.19;87.82
65858;SHT31;53776;47.242;18.674;2022-10-16T05:15:29;8.20;87.78
65858;SHT31;53776;47.242;18.674;2022-10-16T05:17:55;8.22;87.76
65858;SHT31;53776;47.242;18.674;2022-10-16T05:20:22;8.24;87.85
65858;SHT31;53776;47.242;18.674;2022-10-16T05:22:48;8.27;87.82
65858;SHT31;53776;47.242;18.674;2022-10-16T05:25:13;8.31;87.71
65858;SHT31;53776;47.242;18.674;2022-10-16T05:27:38;8.33;87.69
65858;SHT31;53776;47.242;18.674;2022-10-16T05:30:04;8.38;87.61
65858;SHT31;53776;47.242;18.674;2022-10-16T05:32:30;8.41;87.62
65858;SHT31;53776;47.242;18.674;2022-10-16T05:34:55;8.44;87.56
65858;SHT31;53776;47.242;18.674;2022-10-16T05:37:21;8.43;87.68
65858;SHT31;53776;47.242;18.674;2022-10-16T05:39:46;8.47;87.76
65858;SHT31;53776;47.242;18.674;2022-10-16T05:42:12;8.51;87.81
65858;SHT31;53776;47.242;18.674;2022-10-16T05:44:37;8.58;87.75
65858;SHT31;53776;47.242;18.674;2022-10-16T05:47:03;8.60;87.74
65858;SHT31;53776;47.242;18.674;2022-10-16T05:49:28;8.68;87.73
65858;SHT31;53776;47.242;18.674;2022-10-16T05:51:54;8.73;87.66
65858;SHT31;53776;47.242;18.674;2022-10-16T05:54:19;8.83;87.65
65858;SHT31;53776;47.242;18.674;2022-10-16T05:56:44;8.95;87.56
65858;SHT31;53776;47.242;18.674;2022-10-16T05:59:10;8.99;87.55
65858;SHT31;53776;47.242;18.674;2022-10-16T06:01:35;9.16;87.48
65858;SHT31;53776;47.242;18.674;2022-10-16T06:04:01;9.24;87.40
65858;SHT31;53776;47.242;18.674;2022-10-16T06:06:27;9.30;87.37
65858;SHT31;53776;47.242;18.674;2022-10-16T06:08:54;9.39;87.36
65858;SHT31;53776;47.242;18.674;2022-10-16T06:11:25;9.46;87.32
65858;SHT31;53776;47.242;18.674;2022-10-16T06:13:53;9.57;87.25
65858;SHT31;53776;47.242;18.674;2022-10-16T06:16:19;9.71;87.17
65858;SHT31;53776;47.242;18.674;2022-10-16T06:18:46;9.82;87.09
65858;SHT31;53776;47.242;18.674;2022-10-16T06:21:23;10.40;86.75
65858;SHT31;53776;47.242;18.674;2022-10-16T06:23:53;11.87;83.47
65858;SHT31;53776;47.242;18.674;2022-10-16T06:26:25;13.31;79.74
65858;SHT31;53776;47.242;18.674;2022-10-16T06:28:50;14.45;75.03
65858;SHT31;53776;47.242;18.674;2022-10-16T06:31:17;15.43;71.78
65858;SHT31;53776;47.242;18.674;2022-10-16T06:33:42;16.22;68.59
65858;SHT31;53776;47.242;18.674;2022-10-16T06:36:13;16.97;67.04
65858;SHT31;53776;47.242;18.674;2022-10-16T06:38:40;17.51;63.93
65858;SHT31;53776;47.242;18.674;2022-10-16T06:41:07;17.78;63.57
65858;SHT31;53776;47.242;18.674;2022-10-16T06:43:33;18.37;60.45
65858;SHT31;53776;47.242;18.674;2022-10-16T06:46:01;18.69;60.99
65858;SHT31;53776;47.242;18.674;2022-10-16T06:48:27;19.26;58.15
65858;SHT31;53776;47.242;18.674;2022-10-16T06:51:10;19.57;57.40
65858;SHT31;53776;47.242;18.674;2022-10-16T06:53:38;19.96;54.74
65858;SHT31;53776;47.242;18.674;2022-10-16T06:56:24;20.40;54.24
65858;SHT31;53776;47.242;18.674;2022-10-16T06:58:50;20.26;56.67
65858;SHT31;53776;47.242;18.674;2022-10-16T07:01:17;20.67;55.32
65858;SHT31;53776;47.242;18.674;2022-10-16T07:03:44;21.41;51.72
65858;SHT31;53776;47.242;18.674;2022-10-16T07:06:11;21.48;51.57
65858;SHT31;53776;47.242;18.674;2022-10-16T07:08:39;21.08;53.31
65858;SHT31;53776;47.242;18.674;2022-10-16T07:11:10;21.34;51.46
65858;SHT31;53776;47.242;18.674;2022-10-16T07:13:37;21.37;51.39
65858;SHT31;53776;47.242;18.674;2022-10-16T07:16:13;21.66;52.06
65858;SHT31;53776;47.242;18.674;2022-10-16T07:18:38;21.49;50.66
65858;SHT31;53776;47.242;18.674;2022-10-16T07:23:30;21.48;51.50
65858;SHT31;53776;47.242;18.674;2022-10-16T07:25:56;21.12;51.24
65858;SHT31;53776;47.242;18.674;2022-10-16T07:28:21;21.42;50.82
65858;SHT31;53776;47.242;18.674;2022-10-16T07:30:47;22.11;49.12
65858;SHT31;53776;47.242;18.674;2022-10-16T07:33:12;22.69;49.37
65858;SHT31;53776;47.242;18.674;2022-10-16T07:35:38;22.55;47.91
65858;SHT31;53776;47.242;18.674;2022-10-16T07:38:12;22.82;47.84
65858;SHT31;53776;47.242;18.674;2022-10-16T07:40:37;23.02;46.21
65858;SHT31;53776;47.242;18.674;2022-10-16T07:43:02;22.91;47.34
65858;SHT31;53776;47.242;18.674;2022-10-16T07:45:30;23.28;45.71
65858;SHT31;53776;47.242;18.674;2022-10-16T07:47:55;23.51;44.89
65858;SHT31;53776;47.242;18.674;2022-10-16T07:50:21;23.78;45.44
65858;SHT31;53776;47.242;18.674;2022-10-16T07:52:46;23.49;44.74
65858;SHT31;53776;47.242;18.674;2022-10-16T07:55:12;23.23;45.03
65858;SHT31;53776;47.242;18.674;2022-10-16T07:57:37;23.14;45.96
65858;SHT31;53776;47.242;18.674;2022-10-16T08:00:03;23.86;47.03
65858;SHT31;53776;47.242;18.674;2022-10-16T08:02:28;24.46;46.53
65858;SHT31;53776;47.242;18.674;2022-10-16T08:04:54;24.28;44.92
65858;SHT31;53776;47.242;18.674;2022-10-16T08:07:19;24.08;45.12
65858;SHT31;53776;47.242;18.674;2022-10-16T08:09:49;23.94;44.76
65858;SHT31;53776;47.242;18.674;2022-10-16T08:12:14;23.63;44.96
65858;SHT31;53776;47.242;18.674;2022-10-16T08:14:40;23.43;47.11
65858;SHT31;53776;47.242;18.674;2022-10-16T08:17:05;23.26;47.10
65858;SHT31;53776;47.242;18.674;2022-10-16T08:19:31;22.89;46.81
65858;SHT31;53776;47.242;18.674;2022-10-16T08:21:59;21.73;50.33
65858;SHT31;53776;47.242;18.674;2022-10-16T08:24:24;21.30;49.94
65858;SHT31;53776;47.242;18.674;2022-10-16T08:26:50;21.37;51.68
65858;SHT31;53776;47.242;18.674;2022-10-16T08:29:15;21.02;53.60
65858;SHT31;53776;47.242;18.674;2022-10-16T08:31:40;20.43;54.67
65858;SHT31;53776;47.242;18.674;2022-10-16T08:34:06;20.19;57.48
65858;SHT31;53776;47.242;18.674;2022-10-16T08:36:32;19.94;54.80
65858;SHT31;53776;47.242;18.674;2022-10-16T08:38:57;19.64;56.12
65858;SHT31;53776;47.242;18.674;2022-10-16T08:49:33;19.50;57.83
65858;SHT31;53776;47.242;18.674;2022-10-16T08:51:58;19.49;57.83
65858;SHT31;53776;47.242;18.674;2022-10-16T08:56:57;19.67;56.36
65858;SHT31;53776;47.242;18.674;2022-10-16T08:59:26;19.70;56.61
65858;SHT31;53776;47.242;18.674;2022-10-16T09:01:52;19.77;57.43
65858;SHT31;53776;47.242;18.674;2022-10-16T09:04:48;19.82;57.80
65858;SHT31;53776;47.242;18.674;2022-10-16T09:07:36;20.02;56.73
65858;SHT31;53776;47.242;18.674;2022-10-16T09:18:15;19.89;56.48
65858;SHT31;53776;47.242;18.674;2022-10-16T09:20:49;19.87;55.45
65858;SHT31;53776;47.242;18.674;2022-10-16T09:23:26;19.71;56.22
65858;SHT31;53776;47.242;18.674;2022-10-16T09:25:53;19.57;56.07
65858;SHT31;53776;47.242;18.674;2022-10-16T09:28:19;19.84;57.04
65858;SHT31;53776;47.242;18.674;2022-10-16T09:30:45;19.64;56.46
65858;SHT31;53776;47.242;18.674;2022-10-16T09:33:12;19.74;55.84
65858;SHT31;53776;47.242;18.674;2022-10-16T09:35:43;19.87;56.34
65858;SHT31;53776;47.242;18.674;2022-10-16T09:38:29;20.19;55.72
65858;SHT31;53776;47.242;18.674;2022-10-16T09:41:00;20.12;56.23
65858;SHT31;53776;47.242;18.674;2022-10-16T09:43:54;20.43;55.89
65858;SHT31;53776;47.242;18.674;2022-10-16T09:48:49;20.16;55.06
65858;SHT31;53776;47.242;18.674;2022-10-16T09:51:31;20.21;56.02
65858;SHT31;53776;47.242;18.674;2022-10-16T09:53:59;20.26;54.77
65858;SHT31;53776;47.242;18.674;2022-10-16T09:56:33;20.42;56.03
65858;SHT31;53776;47.242;18.674;2022-10-16T09:59:03;20.63;54.93
65858;SHT31;53776;47.242;18.674;2022-10-16T10:01:39;20.49;55.44
65858;SHT31;53776;47.242;18.674;2022-10-16T10:04:06;20.49;55.11
65858;SHT31;53776;47.242;18.674;2022-10-16T10:06:55;20.67;55.78
65858;SHT31;53776;47.242;18.674;2022-10-16T10:09:38;20.88;54.42
65858;SHT31;53776;47.242;18.674;2022-10-16T10:12:26;20.93;54.88
65858;SHT31;53776;47.242;18.674;2022-10-16T10:14:53;20.97;54.63
65858;SHT31;53776;47.242;18.674;2022-10-16T10:17:19;21.14;55.49
65858;SHT31;53776;47.242;18.674;2022-10-16T10:22:26;21.34;53.70
65858;SHT31;53776;47.242;18.674;2022-10-16T10:25:10;20.90;53.69
65858;SHT31;53776;47.242;18.674;2022-10-16T10:30:26;20.85;54.15
65858;SHT31;53776;47.242;18.674;2022-10-16T10:41:27;20.94;53.67
65858;SHT31;53776;47.242;18.674;2022-10-16T10:44:07;21.27;54.57
65858;SHT31;53776;47.242;18.674;2022-10-16T10:46:41;21.20;54.09
65858;SHT31;53776;47.242;18.674;2022-10-16T10:49:19;21.20;53.57
65858;SHT31;53776;47.242;18.674;2022-10-16T11:05:38;21.85;51.16
65858;SHT31;53776;47.242;18.674;2022-10-16T11:08:18;22.01;53.71
65858;SHT31;53776;47.242;18.674;2022-10-16T11:10:58;22.06;51.46
65858;SHT31;53776;47.242;18.674;2022-10-16T11:13:35;21.90;51.15
65858;SHT31;53776;47.242;18.674;2022-10-16T11:16:17;22.08;50.98
65858;SHT31;53776;47.242;18.674;2022-10-16T11:18:55;22.16;50.95
65858;SHT31;53776;47.242;18.674;2022-10-16T11:21:23;21.89;50.22
65858;SHT31;53776;47.242;18.674;2022-10-16T11:23:57;21.79;51.49
65858;SHT31;53776;47.242;18.674;2022-10-16T11:26:28;21.79;51.44
65858;SHT31;53776;47.242;18.674;2022-10-16T11:28:55;22.17;51.62
65858;SHT31;53776;47.242;18.674;2022-10-16T11:34:09;22.28;51.19
65858;SHT31;53776;47.242;18.674;2022-10-16T11:39:24;22.48;50.89
65858;SHT31;53776;47.242;18.674;2022-10-16T11:44:44;22.40;49.06
65858;SHT31;53776;47.242;18.674;2022-10-16T11:49:45;22.47;51.09
65858;SHT31;53776;47.242;18.674;2022-10-16T11:52:20;22.61;49.08
65858;SHT31;53776;47.242;18.674;2022-10-16T11:54:55;22.64;50.25
65858;SHT31;53776;47.242;18.674;2022-10-16T11:57:28;22.78;48.18
65858;SHT31;53776;47.242;18.674;2022-10-16T12:00:01;23.06;48.45
65858;SHT31;53776;47.242;18.674;2022-10-16T12:02:52;23.02;48.51
65858;SHT31;53776;47.242;18.674;2022-10-16T12:05:25;23.09;49.10
65858;SHT31;53776;47.242;18.674;2022-10-16T12:08:14;23.27;50.12
65858;SHT31;53776;47.242;18.674;2022-10-16T12:10:43;23.34;49.39
65858;SHT31;53776;47.242;18.674;2022-10-16T12:13:33;23.61;47.25
65858;SHT31;53776;47.242;18.674;2022-10-16T12:18:48;23.16;48.95
65858;SHT31;53776;47.242;18.674;2022-10-16T12:21:15;23.16;48.15
65858;SHT31;53776;47.242;18.674;2022-10-16T12:23:54;23.13;48.31
65858;SHT31;53776;47.242;18.674;2022-10-16T12:26:39;23.19;47.39
65858;SHT31;53776;47.242;18.674;2022-10-16T12:29:18;23.30;47.67
65858;SHT31;53776;47.242;18.674;2022-10-16T12:31:48;22.99;48.02
65858;SHT31;53776;47.242;18.674;2022-10-16T12:34:43;22.98;48.33
65858;SHT31;53776;47.242;18.674;2022-10-16T12:37:18;23.28;47.89
65858;SHT31;53776;47.242;18.674;2022-10-16T12:39:46;23.49;48.52
65858;SHT31;53776;47.242;18.674;2022-10-16T12:42:31;23.74;48.10
65858;SHT31;53776;47.242;18.674;2022-10-16T12:44:58;23.71;45.87
65858;SHT31;53776;47.242;18.674;2022-10-16T12:49:55;23.68;46.09
65858;SHT31;53776;47.242;18.674;2022-10-16T12:54:56;23.54;46.86
65858;SHT31;53776;47.242;18.674;2022-10-16T12:59:59;23.74;46.54
65858;SHT31;53776;47.242;18.674;2022-10-16T13:05:32;23.64;46.77
65858;SHT31;53776;47.242;18.674;2022-10-16T13:08:16;23.85;46.81
65858;SHT31;53776;47.242;18.674;2022-10-16T13:29:22;23.65;47.01
65858;SHT31;53776;47.242;18.674;2022-10-16T13:31:48;23.60;47.32
65858;SHT31;53776;47.242;18.674;2022-10-16T13:34:20;23.54;47.47
65858;SHT31;53776;47.242;18.674;2022-10-16T13:36:48;23.49;48.35
65858;SHT31;53776;47.242;18.674;2022-10-16T13:42:18;23.37;47.54
65858;SHT31;53776;47.242;18.674;2022-10-16T13:44:46;23.64;47.25
65858;SHT31;53776;47.242;18.674;2022-10-16T13:47:17;23.75;47.14
65858;SHT31;53776;47.242;18.674;2022-10-16T13:49:43;23.72;46.97
65858;SHT31;53776;47.242;18.674;2022-10-16T13:52:18;23.40;46.57
65858;SHT31;53776;47.242;18.674;2022-10-16T13:54:43;23.40;47.29
65858;SHT31;53776;47.242;18.674;2022-10-16T13:57:16;23.57;47.39
65858;SHT31;53776;47.242;18.674;2022-10-16T13:59:41;23.58;47.76
65858;SHT31;53776;47.242;18.674;2022-10-16T14:04:48;23.43;47.32
65858;SHT31;53776;47.242;18.674;2022-10-16T14:07:24;23.30;47.37
65858;SHT31;53776;47.242;18.674;2022-10-16T14:09:51;23.14;47.24
65858;SHT31;53776;47.242;18.674;2022-10-16T14:12:17;23.07;47.10
65858;SHT31;53776;47.242;18.674;2022-10-16T14:14:45;23.09;47.81
65858;SHT31;53776;47.242;18.674;2022-10-16T14:17:38;22.96;48.12
65858;SHT31;53776;47.242;18.674;2022-10-16T14:20:14;22.96;48.62
65858;SHT31;53776;47.242;18.674;2022-10-16T14:22:41;22.78;49.24
65858;SHT31;53776;47.242;18.674;2022-10-16T14:27:45;22.58;48.80
65858;SHT31;53776;47.242;18.674;2022-10-16T14:30:15;22.57;49.38
65858;SHT31;53776;47.242;18.674;2022-10-16T14:32:55;22.65;49.42
65858;SHT31;53776;47.242;18.674;2022-10-16T14:35:36;22.61;49.01
65858;SHT31;53776;47.242;18.674;2022-10-16T14:38:03;22.40;49.60
65858;SHT31;53776;47.242;18.674;2022-10-16T14:40:35;22.18;50.56
65858;SHT31;53776;47.242;18.674;2022-10-16T14:43:02;22.10;50.31
65858;SHT31;53776;47.242;18.674;2022-10-16T14:45:31;21.99;50.06
65858;SHT31;53776;47.242;18.674;2022-10-16T14:48:00;22.06;50.48
65858;SHT31;53776;47.242;18.674;2022-10-16T14:50:26;22.04;50.32
65858;SHT31;53776;47.242;18.674;2022-10-16T14:52:52;21.99;50.77
65858;SHT31;53776;47.242;18.674;2022-10-16T14:55:17;21.94;51.08
65858;SHT31;53776;47.242;18.674;2022-10-16T14:57:44;21.85;50.62
65858;SHT31;53776;47.242;18.674;2022-10-16T15:00:19;21.92;51.22
65858;SHT31;53776;47.242;18.674;2022-10-16T15:02:46;21.76;50.73
65858;SHT31;53776;47.242;18.674;2022-10-16T15:05:17;21.78;51.29
65858;SHT31;53776;47.242;18.674;2022-10-16T15:07:44;21.70;51.12
65858;SHT31;53776;47.242;18.674;2022-10-16T15:10:11;21.60;51.24
65858;SHT31;53776;47.242;18.674;2022-10-16T15:12:36;21.51;50.50
65858;SHT31;53776;47.242;18.674;2022-10-16T15:15:20;21.45;50.95
65858;SHT31;53776;47.242;18.674;2022-10-16T15:17:47;21.31;51.56
65858;SHT31;53776;47.242;18.674;2022-10-16T15:20:13;21.21;52.18
65858;SHT31;53776;47.242;18.674;2022-10-16T15:22:38;21.07;52.49
65858;SHT31;53776;47.242;18.674;2022-10-16T15:25:35;20.90;53.83
65858;SHT31;53776;47.242;18.674;2022-10-16T15:28:03;20.72;53.37
65858;SHT31;53776;47.242;18.674;2022-10-16T15:30:29;20.50;53.54
65858;SHT31;53776;47.242;18.674;2022-10-16T15:32:55;20.35;53.88
65858;SHT31;53776;47.242;18.674;2022-10-16T15:35:20;20.22;55.62
65858;SHT31;53776;47.242;18.674;2022-10-16T15:37:47;20.02;54.68
65858;SHT31;53776;47.242;18.674;2022-10-16T15:40:13;19.84;55.21
65858;SHT31;53776;47.242;18.674;2022-10-16T15:42:39;19.67;55.76
65858;SHT31;53776;47.242;18.674;2022-10-16T15:45:05;19.57;56.06
65858;SHT31;53776;47.242;18.674;2022-10-16T15:47:31;19.46;56.46
65858;SHT31;53776;47.242;18.674;2022-10-16T15:49:57;19.30;56.96
65858;SHT31;53776;47.242;18.674;2022-10-16T15:52:22;19.13;57.73
65858;SHT31;53776;47.242;18.674;2022-10-16T15:54:48;18.99;58.32
65858;SHT31;53776;47.242;18.674;2022-10-16T15:57:13;18.81;60.46
65858;SHT31;53776;47.242;18.674;2022-10-16T15:59:39;18.60;60.32
65858;SHT31;53776;47.242;18.674;2022-10-16T16:02:05;18.40;60.79
65858;SHT31;53776;47.242;18.674;2022-10-16T16:04:30;18.26;61.43
65858;SHT31;53776;47.242;18.674;2022-10-16T16:06:56;18.10;60.91
65858;SHT31;53776;47.242;18.674;2022-10-16T16:09:21;17.99;61.47
65858;SHT31;53776;47.242;18.674;2022-10-16T16:11:47;17.87;61.62
65858;SHT31;53776;47.242;18.674;2022-10-16T16:14:13;17.78;62.52
65858;SHT31;53776;47.242;18.674;2022-10-16T16:16:39;17.63;62.66
65858;SHT31;53776;47.242;18.674;2022-10-16T16:19:05;17.48;63.28
65858;SHT31;53776;47.242;18.674;2022-10-16T16:21:32;17.28;64.73
65858;SHT31;53776;47.242;18.674;2022-10-16T16:23:58;17.13;65.49
65858;SHT31;53776;47.242;18.674;2022-10-16T16:26:28;16.99;65.98
65858;SHT31;53776;47.242;18.674;2022-10-16T16:28:57;16.80;66.91
65858;SHT31;53776;47.242;18.674;2022-10-16T16:31:25;16.66;67.35
65858;SHT31;53776;47.242;18.674;2022-10-16T16:33:50;16.56;67.29
65858;SHT31;53776;47.242;18.674;2022-10-16T16:36:17;16.42;68.03
65858;SHT31;53776;47.242;18.674;2022-10-16T16:38:43;16.28;67.63
65858;SHT31;53776;47.242;18.674;2022-10-16T16:41:17;16.12;69.19
65858;SHT31;53776;47.242;18.674;2022-10-16T16:43:44;16.02;69.98
65858;SHT31;53776;47.242;18.674;2022-10-16T16:46:10;15.86;70.60
65858;SHT31;53776;47.242;18.674;2022-10-16T16:48:37;15.67;71.02
65858;SHT31;53776;47.242;18.674;2022-10-16T16:51:07;15.56;71.18
65858;SHT31;53776;47.242;18.674;2022-10-16T16:53:34;15.43;71.66
65858;SHT31;53776;47.242;18.674;2022-10-16T16:56:04;15.32;72.31
65858;SHT31;53776;47.242;18.674;2022-10-16T16:58:29;15.19;72.91
65858;SHT31;53776;47.242;18.674;2022-10-16T17:00:55;15.08;73.36
65858;SHT31;53776;47.242;18.674;2022-10-16T17:03:21;14.96;73.31
65858;SHT31;53776;47.242;18.674;2022-10-16T17:06:00;14.85;73.42
65858;SHT31;53776;47.242;18.674;2022-10-16T17:08:26;14.77;73.67
65858;SHT31;53776;47.242;18.674;2022-10-16T17:10:52;14.70;74.34
65858;SHT31;53776;47.242;18.674;2022-10-16T17:13:25;14.59;74.67
65858;SHT31;53776;47.242;18.674;2022-10-16T17:15:51;14.45;74.93
65858;SHT31;53776;47.242;18.674;2022-10-16T17:18:20;14.40;75.35
65858;SHT31;53776;47.242;18.674;2022-10-16T17:20:46;14.33;75.66
65858;SHT31;53776;47.242;18.674;2022-10-16T17:23:12;14.23;75.81
65858;SHT31;53776;47.242;18.674;2022-10-16T17:25:39;14.13;75.76
65858;SHT31;53776;47.242;18.674;2022-10-16T17:28:06;14.08;76.30
65858;SHT31;53776;47.242;18.674;2022-10-16T17:30:32;14.03;76.84
65858;SHT31;53776;47.242;18.674;2022-10-16T17:33:00;13.94;76.75